Time;durP1;ratioP1;P1;durP2;ratioP2;P2;SDS_P1;SDS_P2;PMS_P1;PMS_P2;Temp;Humidity;BMP_temperature;BMP_pressure;BME280_temperature;BME280_humidity;BME280_pressure;Samples;Min_cycle;Max_cycle;Signal;HPM_P1;HPM_P2
2023/06/06 00:01:49;;;;;;;11.07;4.63;;;10.80;99.90;;;;;;5018434;28;20535;-74
2023/06/06 00:04:15;;;;;;;10.85;5.05;;;10.80;99.90;;;;;;5000219;28;20044;-74
2023/06/06 00:06:44;;;;;;;10.48;4.35;;;10.70;99.90;;;;;;5015964;28;20406;-74
2023/06/06 00:09:10;;;;;;;11.10;4.78;;;10.70;99.90;;;;;;5015503;28;20111;-74
2023/06/06 00:11:39;;;;;;;11.45;5.20;;;10.70;99.90;;;;;;5018482;28;20052;-74
2023/06/06 00:14:06;;;;;;;9.70;4.47;;;11.00;99.90;;;;;;5038434;28;20040;-73
2023/06/06 00:16:32;;;;;;;10.50;4.88;;;10.70;99.90;;;;;;5014446;28;20040;-74
2023/06/06 00:18:58;;;;;;;12.70;5.60;;;10.60;99.90;;;;;;5015930;28;20047;-74
2023/06/06 00:21:24;;;;;;;9.98;4.85;;;10.60;99.90;;;;;;5018868;28;20107;-74
2023/06/06 00:23:52;;;;;;;10.35;4.38;;;10.60;99.90;;;;;;5015161;28;20577;-74
2023/06/06 00:26:18;;;;;;;9.30;4.43;;;11.20;99.90;;;;;;5019795;28;20041;-74
2023/06/06 00:28:43;;;;;;;12.60;4.80;;;10.50;99.90;;;;;;5017182;28;20774;-74
2023/06/06 00:31:09;;;;;;;12.75;4.93;;;10.50;99.90;;;;;;5016191;28;20041;-74
2023/06/06 00:33:35;;;;;;;10.18;4.60;;;10.50;99.90;;;;;;5021045;28;20048;-74
2023/06/06 00:36:00;;;;;;;12.63;4.95;;;10.40;99.90;;;;;;5015352;28;20041;-74
2023/06/06 00:38:26;;;;;;;10.90;5.30;;;10.50;99.90;;;;;;5018242;28;20141;-74
2023/06/06 00:40:52;;;;;;;10.82;4.90;;;10.50;99.90;;;;;;5002384;28;20045;-74
2023/06/06 00:43:17;;;;;;;11.30;5.00;;;10.40;99.90;;;;;;5013236;28;20095;-73
2023/06/06 00:45:43;;;;;;;10.30;4.82;;;10.40;99.90;;;;;;5018231;28;20073;-73
2023/06/06 00:48:09;;;;;;;11.27;4.93;;;10.40;99.90;;;;;;5017516;28;20041;-73
2023/06/06 00:50:35;;;;;;;11.75;5.00;;;10.30;99.90;;;;;;5015046;28;20052;-73
2023/06/06 00:53:03;;;;;;;9.35;4.68;;;10.30;99.90;;;;;;5016652;28;20185;-73
2023/06/06 00:55:31;;;;;;;11.60;4.38;;;10.30;99.90;;;;;;5019862;28;20041;-73
2023/06/06 00:57:59;;;;;;;12.50;5.18;;;10.30;99.90;;;;;;5020853;28;20638;-74
2023/06/06 01:00:28;;;;;;;12.05;4.82;;;10.30;99.90;;;;;;5021370;28;20338;-74
2023/06/06 01:02:54;;;;;;;10.00;4.40;;;10.30;99.90;;;;;;5020625;28;20045;-73
2023/06/06 01:05:20;;;;;;;12.48;5.30;;;10.30;99.90;;;;;;5016327;28;20383;-73
2023/06/06 01:07:47;;;;;;;10.05;5.03;;;10.30;99.90;;;;;;5022058;28;20111;-74
2023/06/06 01:10:15;;;;;;;8.75;4.75;;;10.20;99.90;;;;;;5003249;28;20050;-73
2023/06/06 01:12:59;;;;;;;10.18;5.13;;;10.20;99.90;;;;;;5019560;28;20095;-73
2023/06/06 01:15:30;;;;;;;14.82;5.45;;;10.20;99.90;;;;;;5021986;28;20041;-74
2023/06/06 01:17:56;;;;;;;;;;;10.20;99.90;;;;;;5017705;28;20096;-74
2023/06/06 01:20:23;;;;;;;9.77;4.68;;;10.20;99.90;;;;;;5018477;28;19921;-74
2023/06/06 01:22:52;;;;;;;10.77;4.93;;;10.10;99.90;;;;;;5018629;28;20113;-74
2023/06/06 01:25:19;;;;;;;10.55;5.07;;;10.20;99.90;;;;;;5016526;28;20406;-74
2023/06/06 01:27:46;;;;;;;13.27;6.03;;;10.20;99.90;;;;;;5016472;28;20045;-74
2023/06/06 01:30:14;;;;;;;15.40;5.85;;;10.10;99.90;;;;;;5016315;28;20034;-74
2023/06/06 01:32:47;;;;;;;12.93;5.45;;;10.10;99.90;;;;;;5024970;28;20087;-73
2023/06/06 01:35:32;;;;;;;11.27;5.07;;;10.10;99.90;;;;;;5018421;28;20453;-75
2023/06/06 01:38:04;;;;;;;15.40;5.00;;;10.00;99.90;;;;;;5022465;28;20038;-74
2023/06/06 01:40:33;;;;;;;13.10;5.53;;;10.00;99.90;;;;;;5017001;28;20046;-74
2023/06/06 01:43:01;;;;;;;10.73;5.20;;;10.00;99.90;;;;;;5006331;28;20432;-73
2023/06/06 01:45:30;;;;;;;9.80;4.90;;;10.00;99.90;;;;;;5017971;28;20495;-73
2023/06/06 01:47:57;;;;;;;12.35;5.10;;;10.00;99.90;;;;;;5025171;28;20049;-73
2023/06/06 01:50:22;;;;;;;12.63;5.10;;;9.90;99.90;;;;;;5019426;28;20081;-73
2023/06/06 01:52:51;;;;;;;9.00;5.13;;;9.90;99.90;;;;;;5021218;28;20117;-73
2023/06/06 01:55:17;;;;;;;11.65;5.10;;;9.90;99.90;;;;;;5017197;28;20049;-73
2023/06/06 01:57:42;;;;;;;12.93;5.60;;;9.90;99.90;;;;;;5021694;28;20045;-75
2023/06/06 02:00:09;;;;;;;11.93;5.22;;;9.90;99.90;;;;;;5015973;28;20140;-74
2023/06/06 02:02:35;;;;;;;13.68;6.30;;;9.90;99.90;;;;;;5015396;28;20042;-74
2023/06/06 02:05:00;;;;;;;11.10;5.55;;;9.80;99.90;;;;;;5008566;28;20049;-74
2023/06/06 02:07:26;;;;;;;11.23;5.38;;;9.90;99.90;;;;;;5021069;28;20658;-74
2023/06/06 02:09:52;;;;;;;10.05;5.22;;;10.30;99.90;;;;;;5002564;28;20049;-74
2023/06/06 02:12:18;;;;;;;14.63;4.93;;;9.90;99.90;;;;;;5025267;28;20049;-74
2023/06/06 02:14:44;;;;;;;10.75;5.20;;;9.90;99.90;;;;;;5013020;28;20053;-74
2023/06/06 02:17:09;;;;;;;13.93;6.25;;;9.80;99.90;;;;;;5022471;28;20080;-74
2023/06/06 02:19:35;;;;;;;12.90;5.90;;;9.80;99.90;;;;;;5016733;28;20053;-74
2023/06/06 02:22:01;;;;;;;11.82;4.97;;;9.80;99.90;;;;;;5021827;28;20045;-74
2023/06/06 02:24:27;;;;;;;13.15;5.47;;;9.80;99.90;;;;;;5019609;28;20049;-74
2023/06/06 02:26:54;;;;;;;10.02;5.43;;;9.80;99.90;;;;;;5017565;28;20045;-74
2023/06/06 02:29:22;;;;;;;11.77;5.80;;;9.80;99.90;;;;;;5002618;28;20510;-73
2023/06/06 02:31:49;;;;;;;14.85;6.45;;;9.80;99.90;;;;;;5014643;28;20052;-74
2023/06/06 02:34:15;;;;;;;12.13;5.60;;;9.80;99.90;;;;;;5022927;28;20573;-74
2023/06/06 02:36:41;;;;;;;12.88;5.85;;;9.70;99.90;;;;;;5017972;28;20041;-73
2023/06/06 02:39:08;;;;;;;13.18;6.13;;;9.80;99.90;;;;;;5020653;28;20041;-74
2023/06/06 02:41:33;;;;;;;13.50;5.57;;;9.80;99.90;;;;;;5002881;28;20383;-74
2023/06/06 02:43:59;;;;;;;11.80;5.78;;;9.80;99.90;;;;;;5020171;28;20048;-75
2023/06/06 02:46:25;;;;;;;11.93;5.72;;;9.80;99.90;;;;;;5017870;28;20044;-75
2023/06/06 02:48:52;;;;;;;12.43;5.97;;;9.70;99.90;;;;;;5022059;28;20046;-75
2023/06/06 02:51:20;;;;;;;16.95;6.32;;;9.70;99.90;;;;;;5012197;28;20042;-74
2023/06/06 02:53:46;;;;;;;15.45;5.82;;;9.70;99.90;;;;;;5022855;28;20045;-74
2023/06/06 02:56:12;;;;;;;13.38;6.00;;;10.00;99.90;;;;;;5014417;28;20525;-74
2023/06/06 02:58:38;;;;;;;10.98;5.32;;;9.70;99.90;;;;;;5022289;28;20520;-73
2023/06/06 03:01:05;;;;;;;13.88;6.05;;;9.70;99.90;;;;;;5004775;28;20056;-74
2023/06/06 03:03:30;;;;;;;12.40;6.43;;;9.80;99.90;;;;;;5018026;28;20045;-74
2023/06/06 03:05:57;;;;;;;15.13;6.22;;;10.00;99.90;;;;;;5017909;28;20559;-74
2023/06/06 03:08:23;;;;;;;12.23;5.78;;;9.90;99.90;;;;;;5016926;28;20137;-74
2023/06/06 03:10:50;;;;;;;17.05;6.80;;;9.70;99.90;;;;;;5019694;28;20072;-74
2023/06/06 03:13:16;;;;;;;10.80;5.60;;;9.70;99.90;;;;;;5016404;28;20045;-74
2023/06/06 03:15:46;;;;;;;15.15;6.18;;;9.80;99.90;;;;;;5016225;28;20104;-74
2023/06/06 03:18:17;;;;;;;11.93;5.80;;;9.70;99.90;;;;;;5015605;28;20111;-74
2023/06/06 03:20:45;;;;;;;16.58;5.97;;;9.70;99.90;;;;;;5015308;28;20061;-74
2023/06/06 03:23:12;;;;;;;16.05;6.13;;;9.70;99.90;;;;;;5017483;28;20041;-73
2023/06/06 03:25:43;;;;;;;10.90;5.82;;;9.70;99.90;;;;;;5015683;28;20053;-74
2023/06/06 03:28:13;;;;;;;13.07;5.35;;;9.70;99.90;;;;;;5001313;28;20140;-74
2023/06/06 03:30:39;;;;;;;12.27;5.80;;;9.70;99.90;;;;;;5014608;28;20160;-74
2023/06/06 03:33:06;;;;;;;13.30;5.93;;;9.70;99.90;;;;;;4997732;28;20060;-74
2023/06/06 03:35:33;;;;;;;13.40;6.03;;;9.70;99.90;;;;;;5019425;28;20055;-74
2023/06/06 03:38:00;;;;;;;14.38;5.80;;;9.70;99.90;;;;;;5002359;28;20132;-74
2023/06/06 03:40:25;;;;;;;15.45;6.28;;;9.70;99.90;;;;;;5016149;28;21754;-74
2023/06/06 03:42:51;;;;;;;15.20;6.07;;;9.80;99.90;;;;;;5017302;28;20038;-75
2023/06/06 03:45:18;;;;;;;12.63;6.03;;;9.90;99.90;;;;;;5018909;28;20072;-74
2023/06/06 03:47:45;;;;;;;13.57;6.28;;;9.80;99.90;;;;;;5016362;28;20045;-73
2023/06/06 03:50:12;;;;;;;14.50;6.78;;;9.80;99.90;;;;;;5022649;28;20103;-74
2023/06/06 03:52:40;;;;;;;22.92;7.05;;;9.80;99.90;;;;;;5016100;28;20103;-74
2023/06/06 03:55:07;;;;;;;11.38;6.40;;;9.80;99.90;;;;;;5022308;28;20041;-74
2023/06/06 03:57:33;;;;;;;16.63;6.60;;;9.90;99.90;;;;;;5021512;28;20048;-73
2023/06/06 04:00:00;;;;;;;14.27;6.28;;;9.80;99.90;;;;;;5018387;28;20148;-74
2023/06/06 04:02:27;;;;;;;10.88;5.95;;;9.90;99.90;;;;;;5011189;28;20056;-74
2023/06/06 04:04:54;;;;;;;12.45;6.30;;;9.90;99.90;;;;;;5012381;28;20053;-74
2023/06/06 04:07:20;;;;;;;15.10;6.28;;;9.90;99.90;;;;;;5017893;28;20099;-74
2023/06/06 04:09:45;;;;;;;14.48;6.47;;;9.90;99.90;;;;;;5021662;28;20037;-74
2023/06/06 04:12:11;;;;;;;13.38;6.22;;;9.90;99.90;;;;;;5022007;28;20050;-74
2023/06/06 04:14:37;;;;;;;14.50;6.30;;;10.00;99.90;;;;;;5010434;28;20048;-74
2023/06/06 04:17:03;;;;;;;13.55;6.10;;;10.00;99.90;;;;;;5020652;28;20115;-73
2023/06/06 04:19:30;;;;;;;12.52;6.15;;;10.30;99.90;;;;;;5023217;28;20050;-74
2023/06/06 04:21:56;;;;;;;14.68;6.63;;;10.00;99.90;;;;;;5023755;28;20199;-74
2023/06/06 04:24:22;;;;;;;12.93;5.85;;;10.10;99.90;;;;;;5024430;28;20131;-74
2023/06/06 04:26:48;;;;;;;16.65;6.53;;;10.10;99.90;;;;;;5024156;28;20498;-74
2023/06/06 04:29:14;;;;;;;12.77;6.78;;;10.10;99.90;;;;;;5021346;28;20041;-74
2023/06/06 04:31:44;;;;;;;19.55;7.50;;;10.20;99.90;;;;;;5017007;28;20044;-75
2023/06/06 04:34:12;;;;;;;14.57;6.93;;;10.20;99.90;;;;;;5017804;28;20045;-74
2023/06/06 04:36:38;;;;;;;15.18;6.43;;;10.40;99.90;;;;;;5019982;28;20366;-75
2023/06/06 04:39:08;;;;;;;14.20;5.70;;;10.60;99.90;;;;;;5020485;28;20095;-74
2023/06/06 04:41:34;;;;;;;12.83;6.17;;;10.80;99.90;;;;;;5026157;28;20528;-74
2023/06/06 04:44:04;;;;;;;18.00;7.22;;;11.20;99.90;;;;;;5022471;28;20042;-74
2023/06/06 04:46:30;;;;;;;15.73;6.22;;;11.70;99.90;;;;;;5020804;28;20049;-74
2023/06/06 04:48:59;;;;;;;13.60;5.35;;;11.60;99.90;;;;;;5021618;28;20049;-75
2023/06/06 04:51:29;;;;;;;15.02;5.35;;;11.80;99.90;;;;;;5000210;28;20044;-74
2023/06/06 04:54:03;;;;;;;14.67;4.80;;;12.00;99.90;;;;;;5019948;28;20037;-74
2023/06/06 04:56:29;;;;;;;13.07;5.15;;;12.20;99.90;;;;;;5001683;28;20419;-74
2023/06/06 04:58:56;;;;;;;15.32;4.97;;;12.40;99.90;;;;;;5002257;28;20418;-75
2023/06/06 05:01:23;;;;;;;13.27;4.85;;;12.50;99.90;;;;;;5014739;28;20050;-75
2023/06/06 05:03:52;;;;;;;13.68;4.63;;;12.70;99.90;;;;;;5018537;28;20125;-75
2023/06/06 05:06:18;;;;;;;13.65;5.07;;;12.90;99.90;;;;;;5015025;28;20045;-74
2023/06/06 05:08:44;;;;;;;10.88;4.55;;;13.10;99.90;;;;;;5017611;28;20815;-74
2023/06/06 05:11:13;;;;;;;14.07;4.60;;;13.30;99.90;;;;;;5000670;28;20045;-74
2023/06/06 05:13:39;;;;;;;13.77;4.88;;;13.50;99.90;;;;;;4999294;28;20049;-74
2023/06/06 05:16:07;;;;;;;15.48;4.75;;;13.60;99.90;;;;;;5014427;28;20544;-74
2023/06/06 05:18:33;;;;;;;16.02;5.43;;;13.80;99.90;;;;;;5015720;28;20506;-75
2023/06/06 05:21:02;;;;;;;16.23;4.80;;;13.90;99.90;;;;;;5014665;28;20065;-74
2023/06/06 05:23:31;;;;;;;14.38;5.07;;;14.10;99.90;;;;;;4997952;28;20045;-75
2023/06/06 05:25:58;;;;;;;12.50;4.85;;;14.20;99.90;;;;;;4994729;28;20438;-74
2023/06/06 05:28:24;;;;;;;14.00;5.18;;;14.40;99.90;;;;;;5009352;28;20112;-74
2023/06/06 05:30:56;;;;;;;14.60;4.28;;;14.40;99.90;;;;;;5010461;28;20046;-74
2023/06/06 05:33:22;;;;;;;11.55;4.40;;;14.20;99.90;;;;;;5028212;28;20196;-74
2023/06/06 05:35:48;;;;;;;12.73;4.65;;;13.90;99.90;;;;;;5013295;28;20441;-74
2023/06/06 05:38:18;;;;;;;14.25;5.00;;;13.70;99.90;;;;;;5007861;28;20116;-74
2023/06/06 05:40:43;;;;;;;13.32;4.93;;;13.50;99.90;;;;;;5004533;28;20533;-73
2023/06/06 05:43:09;;;;;;;14.68;5.10;;;13.40;99.90;;;;;;5007002;28;20044;-74
2023/06/06 05:45:35;;;;;;;14.48;5.53;;;13.20;99.90;;;;;;5007585;28;20517;-73
2023/06/06 05:48:01;;;;;;;17.85;6.18;;;13.10;99.90;;;;;;5011573;28;20042;-73
2023/06/06 05:50:28;;;;;;;13.50;5.53;;;13.10;99.90;;;;;;5003375;28;20109;-72
2023/06/06 05:52:54;;;;;;;14.35;5.30;;;13.00;99.90;;;;;;5014081;28;20046;-73
2023/06/06 05:55:33;;;;;;;18.60;5.55;;;13.00;99.90;;;;;;5015366;28;20168;-73
2023/06/06 05:58:00;;;;;;;10.80;5.18;;;13.00;99.90;;;;;;5017060;28;20096;-73
2023/06/06 06:00:27;;;;;;;17.08;5.28;;;13.00;99.90;;;;;;5015882;28;20044;-74
2023/06/06 06:02:55;;;;;;;14.02;4.82;;;13.00;99.90;;;;;;5020335;28;20042;-74
2023/06/06 06:05:22;;;;;;;20.77;6.05;;;12.90;99.90;;;;;;5017133;28;20056;-72
2023/06/06 06:07:52;;;;;;;17.27;5.18;;;12.90;99.90;;;;;;5003281;28;20128;-73
2023/06/06 06:10:19;;;;;;;11.32;4.80;;;13.10;99.90;;;;;;5021284;28;20045;-73
2023/06/06 06:12:44;;;;;;;14.80;4.65;;;13.20;99.90;;;;;;5020065;28;20045;-73
2023/06/06 06:15:11;;;;;;;15.05;4.70;;;13.20;99.90;;;;;;5020093;28;20041;-73
2023/06/06 06:17:36;;;;;;;11.73;4.43;;;13.30;99.90;;;;;;5018592;28;20454;-73
2023/06/06 06:20:08;;;;;;;12.88;4.40;;;13.50;99.90;;;;;;5016431;28;20976;-73
2023/06/06 06:22:37;;;;;;;10.07;4.03;;;13.70;99.90;;;;;;5015595;28;20049;-72
2023/06/06 06:25:08;;;;;;;16.60;4.00;;;13.90;99.90;;;;;;5018203;28;20044;-74
2023/06/06 06:27:37;;;;;;;10.18;3.90;;;14.00;99.90;;;;;;5022476;28;20461;-74
2023/06/06 06:30:04;;;;;;;13.55;3.92;;;14.00;99.90;;;;;;5018176;28;20076;-74
2023/06/06 06:32:33;;;;;;;11.15;3.75;;;14.00;99.90;;;;;;5018874;28;20045;-73
2023/06/06 06:35:00;;;;;;;13.82;4.32;;;13.90;99.90;;;;;;5022753;28;20544;-74
2023/06/06 06:37:26;;;;;;;12.10;3.92;;;13.80;99.90;;;;;;5025760;28;20803;-74
2023/06/06 06:39:52;;;;;;;10.60;3.92;;;13.70;99.90;;;;;;5022917;28;20049;-74
2023/06/06 06:42:17;;;;;;;11.13;4.13;;;13.70;99.90;;;;;;5020476;28;20041;-74
2023/06/06 06:44:43;;;;;;;15.48;4.43;;;13.60;99.90;;;;;;5022571;28;20050;-73
2023/06/06 06:47:09;;;;;;;9.70;3.95;;;13.60;99.90;;;;;;5004603;28;20124;-73
2023/06/06 06:49:39;;;;;;;9.35;3.40;;;13.50;99.90;;;;;;5019375;28;20497;-74
2023/06/06 06:52:07;;;;;;;12.10;3.63;;;13.50;99.90;;;;;;5006027;28;20041;-73
2023/06/06 06:54:35;;;;;;;12.43;3.67;;;13.50;99.90;;;;;;5017403;28;20394;-73
2023/06/06 06:57:02;;;;;;;11.25;3.30;;;13.50;99.90;;;;;;5020920;28;20053;-73
2023/06/06 06:59:28;;;;;;;11.45;3.50;;;13.50;99.90;;;;;;5019109;28;20061;-73
2023/06/06 07:01:54;;;;;;;9.70;3.70;;;13.60;99.90;;;;;;5000948;28;20299;-73
2023/06/06 07:04:21;;;;;;;14.57;3.85;;;13.60;99.90;;;;;;5023304;28;20030;-74
2023/06/06 07:06:46;;;;;;;10.63;4.10;;;13.60;99.90;;;;;;5024200;28;20072;-74
2023/06/06 07:09:14;;;;;;;11.50;4.43;;;13.60;99.90;;;;;;5022487;28;20033;-74
2023/06/06 07:11:39;;;;;;;11.65;3.83;;;13.70;99.90;;;;;;5019516;28;20080;-74
2023/06/06 07:14:06;;;;;;;14.18;4.43;;;13.80;99.90;;;;;;5018428;28;20046;-74
2023/06/06 07:16:34;;;;;;;10.95;4.32;;;13.90;99.90;;;;;;5019843;28;20508;-74
2023/06/06 07:18:59;;;;;;;15.15;4.18;;;14.00;99.90;;;;;;5016799;28;20069;-74
2023/06/06 07:21:25;;;;;;;10.95;3.90;;;14.00;99.90;;;;;;5017139;28;20126;-73
2023/06/06 07:23:52;;;;;;;13.50;4.57;;;14.00;99.90;;;;;;5024585;28;20549;-74
2023/06/06 07:26:19;;;;;;;11.00;4.05;;;14.00;99.90;;;;;;5020791;28;20037;-75
2023/06/06 07:28:45;;;;;;;11.05;3.95;;;14.10;99.90;;;;;;5017966;28;20456;-75
2023/06/06 07:31:11;;;;;;;10.60;3.53;;;14.10;99.90;;;;;;5019755;28;20402;-75
2023/06/06 07:33:37;;;;;;;11.43;3.78;;;14.20;99.90;;;;;;5022127;28;20693;-75
2023/06/06 07:36:03;;;;;;;12.27;4.45;;;14.20;99.90;;;;;;5006790;28;20060;-75
2023/06/06 07:38:29;;;;;;;13.25;4.43;;;14.20;99.90;;;;;;5021087;28;20037;-74
2023/06/06 07:40:56;;;;;;;12.00;4.18;;;14.20;99.90;;;;;;5020432;28;20048;-75
2023/06/06 07:43:22;;;;;;;12.02;4.57;;;14.30;99.90;;;;;;4998294;28;21459;-74
2023/06/06 07:45:47;;;;;;;10.85;3.83;;;14.40;99.90;;;;;;5035473;28;20123;-73
2023/06/06 07:48:13;;;;;;;8.55;3.58;;;14.50;99.90;;;;;;5019894;28;20046;-75
2023/06/06 07:50:39;;;;;;;11.15;4.50;;;14.70;99.90;;;;;;5026910;28;20045;-74
2023/06/06 07:53:05;;;;;;;13.75;4.30;;;14.80;99.90;;;;;;5019169;28;20103;-74
2023/06/06 07:55:31;;;;;;;9.05;3.72;;;14.80;99.90;;;;;;5024197;28;20457;-74
2023/06/06 07:57:58;;;;;;;12.48;4.65;;;14.90;99.90;;;;;;5022190;28;20053;-73
2023/06/06 08:00:24;;;;;;;10.70;4.30;;;15.00;99.90;;;;;;5018942;28;20490;-75
2023/06/06 08:02:49;;;;;;;13.73;4.57;;;15.10;99.90;;;;;;5016563;28;20132;-74
2023/06/06 08:05:17;;;;;;;12.25;4.78;;;15.10;99.90;;;;;;5020116;28;20172;-74
2023/06/06 08:07:43;;;;;;;9.05;4.60;;;15.20;99.90;;;;;;5023051;28;20046;-74
2023/06/06 08:10:08;;;;;;;11.60;4.95;;;15.30;99.90;;;;;;5024758;28;20079;-75
2023/06/06 08:12:35;;;;;;;12.40;4.60;;;15.40;99.90;;;;;;5013612;28;20087;-74
2023/06/06 08:15:02;;;;;;;11.88;4.75;;;15.40;99.90;;;;;;5002361;28;20506;-75
2023/06/06 08:17:27;;;;;;;13.90;4.78;;;15.40;99.90;;;;;;5010559;28;20406;-75
2023/06/06 08:19:53;;;;;;;13.10;4.95;;;15.40;99.90;;;;;;5006494;28;20042;-74
2023/06/06 08:22:19;;;;;;;13.50;4.72;;;15.40;99.90;;;;;;5009127;28;20049;-75
2023/06/06 08:24:44;;;;;;;14.90;4.53;;;15.50;99.90;;;;;;5018758;28;20141;-74
2023/06/06 08:27:10;;;;;;;16.13;4.85;;;15.60;99.90;;;;;;5021269;28;20081;-75
2023/06/06 08:29:36;;;;;;;15.55;4.80;;;15.70;99.90;;;;;;5023022;28;20068;-75
2023/06/06 08:32:04;;;;;;;13.35;4.18;;;15.70;99.90;;;;;;5026029;28;20406;-75
2023/06/06 08:34:29;;;;;;;16.42;4.85;;;15.70;99.90;;;;;;5023173;28;20150;-75
2023/06/06 08:36:55;;;;;;;9.80;4.10;;;15.70;99.90;;;;;;5023505;28;20088;-74
2023/06/06 08:39:21;;;;;;;20.45;5.97;;;15.80;99.90;;;;;;5019730;28;20528;-73
2023/06/06 08:41:54;;;;;;;18.52;4.80;;;15.80;99.90;;;;;;5019837;28;20578;-76
2023/06/06 08:44:22;;;;;;;13.30;4.97;;;15.80;99.90;;;;;;5012378;28;20418;-74
2023/06/06 08:46:51;;;;;;;11.35;4.60;;;15.80;99.90;;;;;;5015811;28;20049;-74
2023/06/06 08:49:21;;;;;;;10.75;4.38;;;15.80;99.90;;;;;;4998113;28;20095;-74
2023/06/06 08:51:51;;;;;;;18.35;5.78;;;15.80;99.90;;;;;;5015413;28;20398;-73
2023/06/06 08:54:20;;;;;;;11.82;4.88;;;16.00;99.90;;;;;;5013136;28;20042;-74
2023/06/06 08:56:46;;;;;;;9.88;4.93;;;16.00;99.90;;;;;;5018622;28;20038;-73
2023/06/06 08:59:14;;;;;;;11.30;5.20;;;16.10;99.90;;;;;;5018980;28;20033;-75
2023/06/06 09:01:40;;;;;;;12.77;4.53;;;16.20;99.90;;;;;;5018592;28;20069;-76
2023/06/06 09:04:07;;;;;;;11.30;5.00;;;16.20;99.90;;;;;;5003849;28;20050;-76
2023/06/06 09:06:40;;;;;;;13.45;4.90;;;16.20;99.90;;;;;;5017459;28;20053;-75
2023/06/06 09:09:09;;;;;;;11.77;5.55;;;16.30;99.90;;;;;;5001404;28;20113;-74
2023/06/06 09:11:35;;;;;;;18.50;5.47;;;16.30;99.90;;;;;;5010867;28;20046;-74
2023/06/06 09:14:01;;;;;;;11.40;4.22;;;16.30;99.90;;;;;;5014316;28;21669;-74
2023/06/06 09:16:27;;;;;;;13.60;5.30;;;16.20;99.90;;;;;;5017609;28;20048;-75
2023/06/06 09:18:57;;;;;;;11.18;5.68;;;16.30;99.90;;;;;;5025045;28;20384;-74
2023/06/06 09:21:26;;;;;;;10.90;5.00;;;16.30;99.90;;;;;;5001568;28;20096;-74
2023/06/06 09:23:53;;;;;;;11.18;4.65;;;16.40;99.90;;;;;;5019842;28;20605;-74
2023/06/06 09:26:21;;;;;;;10.23;4.43;;;16.40;99.90;;;;;;5016921;28;20578;-74
2023/06/06 09:28:47;;;;;;;12.13;5.13;;;16.40;99.90;;;;;;5018113;28;20141;-73
2023/06/06 09:31:29;;;;;;;11.70;4.22;;;16.40;99.90;;;;;;5020550;28;20605;-75
2023/06/06 09:33:57;;;;;;;11.25;4.70;;;16.40;99.90;;;;;;5018065;28;20083;-73
2023/06/06 09:36:25;;;;;;;10.77;4.25;;;16.40;99.90;;;;;;5020193;28;20044;-74
2023/06/06 09:38:52;;;;;;;15.98;4.22;;;16.40;99.90;;;;;;5020726;28;20410;-73
2023/06/06 09:41:18;;;;;;;8.35;4.18;;;16.50;99.90;;;;;;5019907;28;20042;-73
2023/06/06 09:43:44;;;;;;;13.52;4.47;;;16.50;99.90;;;;;;5020726;28;20134;-73
2023/06/06 09:46:15;;;;;;;12.43;4.38;;;16.60;99.90;;;;;;5001790;28;20041;-73
2023/06/06 09:48:41;;;;;;;11.95;4.63;;;16.60;99.90;;;;;;5019459;28;20495;-74
2023/06/06 09:51:10;;;;;;;10.13;4.55;;;16.60;99.90;;;;;;5016307;28;20037;-73
2023/06/06 09:53:36;;;;;;;15.23;4.90;;;16.70;99.90;;;;;;5023155;28;20042;-77
2023/06/06 09:56:06;;;;;;;14.25;4.78;;;16.70;99.90;;;;;;5021897;28;20040;-75
2023/06/06 09:58:34;;;;;;;11.68;4.95;;;16.70;99.90;;;;;;5025376;28;20207;-74
2023/06/06 10:01:01;;;;;;;10.05;4.72;;;16.70;99.90;;;;;;5025297;28;20046;-74
2023/06/06 10:03:30;;;;;;;13.80;4.35;;;16.70;99.90;;;;;;5014021;28;20041;-75
2023/06/06 10:05:56;;;;;;;13.75;5.32;;;16.70;99.90;;;;;;5023254;28;20045;-76
2023/06/06 10:08:23;;;;;;;9.45;4.63;;;16.80;99.90;;;;;;5026641;28;20402;-74
2023/06/06 10:10:50;;;;;;;10.93;5.07;;;16.80;99.90;;;;;;5010772;28;20146;-75
2023/06/06 10:13:17;;;;;;;12.02;5.00;;;16.80;99.90;;;;;;5017322;28;20045;-75
2023/06/06 10:15:44;;;;;;;12.05;5.65;;;16.90;99.90;;;;;;5008193;28;20034;-74
2023/06/06 10:18:09;;;;;;;9.40;5.18;;;16.90;99.90;;;;;;5005204;28;20038;-74
2023/06/06 10:20:36;;;;;;;14.25;5.40;;;16.90;99.90;;;;;;5005836;28;20033;-75
2023/06/06 10:23:03;;;;;;;15.88;5.53;;;17.00;99.90;;;;;;5016067;28;20076;-75
2023/06/06 10:25:30;;;;;;;13.35;6.18;;;17.00;99.90;;;;;;5019701;28;20092;-75
2023/06/06 10:28:25;;;;;;;10.68;5.60;;;17.00;99.90;;;;;;5012564;28;20084;-77
2023/06/06 10:31:08;;;;;;;10.68;5.03;;;16.90;99.90;;;;;;5002665;28;20077;-75
2023/06/06 10:33:44;;;;;;;10.18;4.57;;;17.00;99.90;;;;;;5023286;28;20049;-75
2023/06/06 10:36:17;;;;;;;12.57;5.30;;;17.10;99.90;;;;;;5010805;28;20080;-76
2023/06/06 10:39:20;;;;;;;11.80;4.55;;;17.20;99.90;;;;;;5021626;28;20429;-76
2023/06/06 10:41:54;;;;;;;12.07;4.20;;;17.10;99.90;;;;;;5016061;28;20430;-76
2023/06/06 10:44:25;;;;;;;10.52;4.75;;;17.00;99.90;;;;;;5013367;28;20056;-75
2023/06/06 10:46:51;;;;;;;14.55;5.53;;;17.10;99.90;;;;;;5026108;28;20084;-76
2023/06/06 10:49:17;;;;;;;13.75;5.50;;;17.10;99.90;;;;;;5026786;28;20088;-75
2023/06/06 10:51:43;;;;;;;17.17;6.07;;;17.10;99.90;;;;;;5021205;28;20568;-75
2023/06/06 10:54:16;;;;;;;15.00;5.82;;;17.10;99.90;;;;;;5014034;28;20057;-76
2023/06/06 10:56:55;;;;;;;13.27;6.13;;;17.10;99.90;;;;;;5007804;28;20045;-71
2023/06/06 10:59:26;;;;;;;11.90;6.22;;;17.20;99.90;;;;;;5007468;28;20158;-70
2023/06/06 11:01:52;;;;;;;;;;;17.20;99.90;;;;;;4992151;28;20715;-70
2023/06/06 11:04:26;;;;;;;13.85;5.47;;;17.30;99.90;;;;;;5015633;28;19936;-70
2023/06/06 11:06:58;;;;;;;15.13;5.70;;;17.30;99.90;;;;;;5012837;28;20057;-71
2023/06/06 11:09:33;;;;;;;13.40;5.30;;;17.20;99.90;;;;;;5011732;28;20290;-71
2023/06/06 11:12:11;;;;;;;12.13;4.95;;;17.10;99.90;;;;;;5019632;28;20042;-71
2023/06/06 11:15:03;;;;;;;14.50;5.10;;;17.20;99.90;;;;;;5019431;28;20747;-71
2023/06/06 11:17:41;;;;;;;;;;;17.20;99.90;;;;;;5010478;28;20076;-70
2023/06/06 11:20:20;;;;;;;12.35;5.50;;;17.30;99.90;;;;;;5018768;28;19960;-69
2023/06/06 11:23:03;;;;;;;13.27;4.80;;;17.30;99.90;;;;;;5016509;28;20056;-70
2023/06/06 11:25:35;;;;;;;16.88;5.18;;;17.30;99.90;;;;;;4987656;28;20131;-70
2023/06/06 11:28:01;;;;;;;9.88;4.50;;;17.30;99.90;;;;;;5023150;28;20450;-70
2023/06/06 11:30:39;;;;;;;14.57;5.38;;;17.30;99.90;;;;;;5028479;28;20037;-70
2023/06/06 11:33:11;;;;;;;13.43;4.80;;;17.30;99.90;;;;;;5002129;28;20124;-70
2023/06/06 11:35:39;;;;;;;11.13;4.65;;;17.30;99.90;;;;;;5019437;28;20038;-69
2023/06/06 11:38:05;;;;;;;11.77;4.55;;;17.20;99.90;;;;;;5005562;28;20046;-67
2023/06/06 11:40:30;;;;;;;12.00;4.95;;;17.20;99.90;;;;;;5010922;28;20099;-70
2023/06/06 11:42:58;;;;;;;13.98;5.00;;;17.20;99.90;;;;;;5014445;28;20414;-69
2023/06/06 11:45:24;;;;;;;16.25;5.63;;;17.30;99.90;;;;;;5013256;28;20072;-69
2023/06/06 11:47:51;;;;;;;12.02;5.30;;;17.30;99.90;;;;;;5010656;28;20073;-70
2023/06/06 11:50:27;;;;;;;16.02;5.32;;;17.20;99.90;;;;;;5009105;28;20136;-70
2023/06/06 11:52:53;;;;;;;17.58;5.50;;;17.10;99.90;;;;;;5019329;28;20061;-70
2023/06/06 11:55:19;;;;;;;14.35;4.97;;;17.20;99.90;;;;;;5008880;28;20044;-69
2023/06/06 11:57:45;;;;;;;16.38;5.45;;;17.30;99.90;;;;;;5011629;28;20131;-70
2023/06/06 12:00:17;;;;;;;10.95;4.70;;;17.30;99.90;;;;;;5010625;28;20054;-70
2023/06/06 12:02:48;;;;;;;14.30;5.85;;;17.40;99.90;;;;;;5011274;28;20079;-70
2023/06/06 12:05:24;;;;;;;12.63;5.22;;;17.40;99.90;;;;;;5014759;28;20042;-70
2023/06/06 12:07:51;;;;;;;14.93;5.38;;;17.50;99.90;;;;;;5005567;28;20073;-72
2023/06/06 12:10:31;;;;;;;14.18;5.28;;;17.50;99.90;;;;;;5021345;28;20050;-71
2023/06/06 12:12:57;;;;;;;9.52;4.75;;;17.50;99.90;;;;;;5001775;28;20986;-70
2023/06/06 12:15:28;;;;;;;16.67;5.68;;;17.60;99.90;;;;;;5011374;28;20174;-70
2023/06/06 12:18:03;;;;;;;14.30;4.70;;;17.50;99.90;;;;;;5004674;28;20132;-70
2023/06/06 12:20:29;;;;;;;13.30;5.10;;;17.50;99.90;;;;;;5002171;28;20357;-70
2023/06/06 12:22:55;;;;;;;12.30;4.88;;;17.50;99.90;;;;;;5004179;28;20474;-70
2023/06/06 12:25:27;;;;;;;15.07;5.00;;;17.50;99.90;;;;;;5004810;28;20132;-69
2023/06/06 12:28:12;;;;;;;12.40;4.95;;;17.60;99.90;;;;;;5007298;28;20145;-70
2023/06/06 12:30:38;;;;;;;9.05;4.28;;;17.60;99.90;;;;;;5011287;28;20045;-70
2023/06/06 12:33:05;;;;;;;13.80;4.82;;;17.50;99.90;;;;;;5022865;28;20090;-69
2023/06/06 12:35:30;;;;;;;20.70;4.63;;;17.40;99.90;;;;;;5005863;28;20120;-70
2023/06/06 12:37:57;;;;;;;11.65;3.67;;;17.30;99.90;;;;;;5000174;28;20046;-71
2023/06/06 12:40:33;;;;;;;11.35;4.20;;;17.30;99.90;;;;;;5005606;28;20586;-70
2023/06/06 12:43:04;;;;;;;11.95;4.53;;;17.30;99.90;;;;;;5003690;28;20726;-70
2023/06/06 12:45:36;;;;;;;12.85;4.68;;;17.40;99.90;;;;;;5006746;28;20072;-69